Time;durP1;ratioP1;P1;durP2;ratioP2;P2;SDS_P1;SDS_P2;PMS_P1;PMS_P2;Temp;Humidity;BMP_temperature;BMP_pressure;BME280_temperature;BME280_humidity;BME280_pressure;Samples;Min_cycle;Max_cycle;Signal;HPM_P1;HPM_P2
2023/12/07 00:00:10;;;;;;;0.10;0.10;;;;;;;;;;5031877;28;20046;-89
2023/12/07 00:02:36;;;;;;;0.10;0.10;;;;;;;;;;5015377;28;20037;-89
2023/12/07 00:05:02;;;;;;;0.10;0.10;;;;;;;;;;5031912;28;20037;-90
2023/12/07 00:07:28;;;;;;;0.10;0.10;;;;;;;;;;5015690;28;20041;-89
2023/12/07 00:09:54;;;;;;;0.10;0.10;;;;;;;;;;5015430;28;20041;-90
2023/12/07 00:12:20;;;;;;;0.10;0.10;;;;;;;;;;5031680;28;20473;-91
2023/12/07 00:14:46;;;;;;;0.20;0.20;;;;;;;;;;5015386;28;20116;-89
2023/12/07 00:17:12;;;;;;;0.10;0.10;;;;;;;;;;5015148;28;20044;-91
2023/12/07 00:19:38;;;;;;;0.10;0.10;;;;;;;;;;5031776;28;20068;-91
2023/12/07 00:22:05;;;;;;;0.10;0.10;;;;;;;;;;5032224;28;20454;-91
2023/12/07 00:24:31;;;;;;;0.10;0.10;;;;;;;;;;5015262;28;20033;-90
2023/12/07 00:26:57;;;;;;;0.10;0.10;;;;;;;;;;5015319;28;20136;-90
2023/12/07 00:29:23;;;;;;;0.10;0.10;;;;;;;;;;5015169;28;20164;-91
2023/12/07 00:31:49;;;;;;;0.10;0.10;;;;;;;;;;5015462;28;20103;-91
2023/12/07 00:34:17;;;;;;;0.10;0.10;;;;;;;;;;5031638;28;20049;-91
2023/12/07 00:36:43;;;;;;;0.10;0.10;;;;;;;;;;5015588;28;20046;-91
2023/12/07 00:39:10;;;;;;;0.30;0.30;;;;;;;;;;5015274;28;20130;-90
2023/12/07 00:41:36;;;;;;;0.10;0.10;;;;;;;;;;5015590;28;20052;-90
2023/12/07 00:44:02;;;;;;;0.10;0.10;;;;;;;;;;5031577;28;20045;-91
2023/12/07 00:46:28;;;;;;;0.10;0.10;;;;;;;;;;5014690;28;20053;-91
2023/12/07 00:48:54;;;;;;;0.10;0.10;;;;;;;;;;5015124;28;20493;-90
2023/12/07 00:51:20;;;;;;;0.10;0.10;;;;;;;;;;5031828;28;20037;-91
2023/12/07 00:53:46;;;;;;;0.10;0.10;;;;;;;;;;5015097;28;20043;-90
2023/12/07 00:56:12;;;;;;;0.20;0.20;;;;;;;;;;5031216;28;20055;-90
2023/12/07 00:58:38;;;;;;;0.10;0.10;;;;;;;;;;5015365;28;20041;-91
2023/12/07 01:01:05;;;;;;;0.10;0.10;;;;;;;;;;5018785;28;20099;-90
2023/12/07 01:03:31;;;;;;;0.10;0.10;;;;;;;;;;5035353;28;20073;-89
2023/12/07 01:05:57;;;;;;;0.10;0.10;;;;;;;;;;5018765;28;20102;-88
2023/12/07 01:08:23;;;;;;;0.10;0.10;;;;;;;;;;5035051;28;20080;-90
2023/12/07 01:10:49;;;;;;;0.10;0.10;;;;;;;;;;5035006;28;20049;-89
2023/12/07 01:13:15;;;;;;;0.10;0.10;;;;;;;;;;5034874;28;20042;-89
2023/12/07 01:15:41;;;;;;;0.10;0.10;;;;;;;;;;5018476;28;20045;-89
2023/12/07 01:18:07;;;;;;;0.10;0.10;;;;;;;;;;5035586;28;20393;-89
2023/12/07 01:20:33;;;;;;;0.10;0.10;;;;;;;;;;5018571;28;20114;-89
2023/12/07 01:22:59;;;;;;;0.10;0.10;;;;;;;;;;5018455;28;20041;-90
2023/12/07 01:25:25;;;;;;;0.10;0.10;;;;;;;;;;5035069;28;20037;-90
2023/12/07 01:27:51;;;;;;;0.20;0.20;;;;;;;;;;5034878;28;20045;-90
2023/12/07 01:30:17;;;;;;;0.10;0.10;;;;;;;;;;5034907;28;20038;-90
2023/12/07 01:32:43;;;;;;;0.10;0.10;;;;;;;;;;5035037;28;20077;-89
2023/12/07 01:35:09;;;;;;;0.10;0.10;;;;;;;;;;5034826;28;20045;-91
2023/12/07 01:37:36;;;;;;;0.10;0.10;;;;;;;;;;5018048;28;20035;-91
2023/12/07 01:40:05;;;;;;;0.17;0.17;;;;;;;;;;5034635;28;20497;-90
2023/12/07 01:42:31;;;;;;;0.10;0.10;;;;;;;;;;5034328;28;20068;-90
2023/12/07 01:44:57;;;;;;;0.10;0.10;;;;;;;;;;5017839;28;20037;-90
2023/12/07 01:47:24;;;;;;;0.10;0.10;;;;;;;;;;5018467;28;20057;-91
2023/12/07 01:49:50;;;;;;;0.10;0.10;;;;;;;;;;5034540;28;20409;-91
2023/12/07 01:52:16;;;;;;;0.10;0.10;;;;;;;;;;5017992;28;20041;-91
2023/12/07 01:54:42;;;;;;;0.10;0.10;;;;;;;;;;5018407;28;20056;-91
2023/12/07 01:57:08;;;;;;;0.10;0.10;;;;;;;;;;5018155;28;20076;-90
2023/12/07 01:59:34;;;;;;;0.10;0.10;;;;;;;;;;5034444;28;20041;-89
2023/12/07 02:02:00;;;;;;;0.38;0.38;;;;;;;;;;5034725;28;20056;-91
2023/12/07 02:04:27;;;;;;;0.10;0.10;;;;;;;;;;5017788;28;20124;-90
2023/12/07 02:06:54;;;;;;;0.10;0.10;;;;;;;;;;5034666;28;20049;-89
2023/12/07 02:09:20;;;;;;;0.10;0.10;;;;;;;;;;5034147;28;20037;-90
2023/12/07 02:11:46;;;;;;;0.10;0.10;;;;;;;;;;5032833;28;20168;-90
2023/12/07 02:14:12;;;;;;;0.10;0.10;;;;;;;;;;5017715;28;20476;-90
2023/12/07 02:16:46;;;;;;;0.25;0.25;;;;;;;;;;5017642;28;20481;-90
2023/12/07 02:19:30;;;;;;;0.10;0.10;;;;;;;;;;5017623;28;20512;-89
2023/12/07 02:21:57;;;;;;;0.32;0.32;;;;;;;;;;5034027;28;20468;-90
2023/12/07 02:24:23;;;;;;;0.10;0.10;;;;;;;;;;5033581;28;20057;-91
2023/12/07 02:26:50;;;;;;;0.10;0.10;;;;;;;;;;5017134;28;20132;-89
2023/12/07 02:29:16;;;;;;;0.10;0.10;;;;;;;;;;5017531;28;20099;-89
2023/12/07 02:31:42;;;;;;;0.10;0.10;;;;;;;;;;5033844;28;20095;-89
2023/12/07 02:34:09;;;;;;;0.10;0.10;;;;;;;;;;5017100;28;20048;-90
2023/12/07 02:36:36;;;;;;;0.10;0.10;;;;;;;;;;5017259;28;20409;-90
2023/12/07 02:39:03;;;;;;;0.10;0.10;;;;;;;;;;5017200;28;20038;-91
2023/12/07 02:41:51;;;;;;;0.10;0.10;;;;;;;;;;5021843;28;20041;-94
2023/12/07 02:44:17;;;;;;;0.10;0.10;;;;;;;;;;5038329;28;20045;-91
2023/12/07 02:46:43;;;;;;;0.10;0.10;;;;;;;;;;5033544;28;20056;-91
2023/12/07 02:49:09;;;;;;;0.95;0.50;;;;;;;;;;5017086;28;20099;-91
2023/12/07 02:51:35;;;;;;;0.10;0.10;;;;;;;;;;5033313;28;20049;-90
2023/12/07 02:54:01;;;;;;;0.17;0.17;;;;;;;;;;5016999;28;20038;-91
2023/12/07 02:56:27;;;;;;;0.10;0.10;;;;;;;;;;5033493;28;20047;-91
2023/12/07 02:58:53;;;;;;;0.10;0.10;;;;;;;;;;5016947;28;20084;-90
2023/12/07 03:01:19;;;;;;;0.20;0.20;;;;;;;;;;5016617;28;20041;-91
2023/12/07 03:03:45;;;;;;;0.10;0.10;;;;;;;;;;5033310;28;20065;-91
2023/12/07 03:06:11;;;;;;;0.20;0.20;;;;;;;;;;5017389;28;20103;-92
2023/12/07 03:08:37;;;;;;;0.10;0.10;;;;;;;;;;5016806;28;20564;-92
2023/12/07 03:11:04;;;;;;;0.10;0.10;;;;;;;;;;5016700;28;20124;-92
2023/12/07 03:13:30;;;;;;;0.15;0.15;;;;;;;;;;5016904;28;20041;-92
2023/12/07 03:15:56;;;;;;;0.10;0.10;;;;;;;;;;5033119;28;20076;-92
2023/12/07 03:18:22;;;;;;;0.10;0.10;;;;;;;;;;5033308;28;20132;-91
2023/12/07 03:20:50;;;;;;;0.10;0.10;;;;;;;;;;5016683;28;20125;-92
2023/12/07 03:23:16;;;;;;;0.20;0.20;;;;;;;;;;5033383;28;20045;-92
2023/12/07 03:25:42;;;;;;;0.10;0.10;;;;;;;;;;5017063;28;20043;-91
2023/12/07 03:28:07;;;;;;;0.10;0.10;;;;;;;;;;5016936;28;20076;-90
2023/12/07 03:30:33;;;;;;;0.10;0.10;;;;;;;;;;5032660;28;20037;-90
2023/12/07 03:33:03;;;;;;;0.10;0.10;;;;;;;;;;5032730;28;20052;-90
2023/12/07 03:35:29;;;;;;;0.10;0.10;;;;;;;;;;5032650;28;20056;-90
2023/12/07 03:37:55;;;;;;;0.10;0.10;;;;;;;;;;5032716;28;20033;-90
2023/12/07 03:40:21;;;;;;;0.10;0.10;;;;;;;;;;5016284;28;20037;-90
2023/12/07 03:42:48;;;;;;;0.10;0.10;;;;;;;;;;5016436;28;20041;-89
2023/12/07 03:45:14;;;;;;;0.10;0.10;;;;;;;;;;5015862;28;20064;-90
2023/12/07 03:47:40;;;;;;;0.10;0.10;;;;;;;;;;5016070;28;20439;-90
2023/12/07 03:50:06;;;;;;;0.10;0.10;;;;;;;;;;5032265;28;20044;-90
2023/12/07 03:52:32;;;;;;;1.45;0.20;;;;;;;;;;5032621;28;20041;-90
2023/12/07 03:54:58;;;;;;;0.10;0.10;;;;;;;;;;5015613;28;20133;-90
2023/12/07 03:57:24;;;;;;;1.08;0.30;;;;;;;;;;5031813;28;20042;-90
2023/12/07 03:59:52;;;;;;;0.17;0.17;;;;;;;;;;5015590;28;20077;-90
2023/12/07 04:02:18;;;;;;;0.20;0.20;;;;;;;;;;5015723;28;20084;-90
2023/12/07 04:04:44;;;;;;;0.10;0.10;;;;;;;;;;5031763;28;20092;-90
2023/12/07 04:07:10;;;;;;;0.20;0.20;;;;;;;;;;5015943;28;20041;-91
2023/12/07 04:09:36;;;;;;;0.10;0.10;;;;;;;;;;5032189;28;20128;-91
2023/12/07 04:12:02;;;;;;;0.47;0.28;;;;;;;;;;5032433;28;20048;-92
2023/12/07 04:14:28;;;;;;;0.10;0.10;;;;;;;;;;5015868;28;20079;-90
2023/12/07 04:16:54;;;;;;;0.10;0.10;;;;;;;;;;5031946;28;20041;-91
2023/12/07 04:19:20;;;;;;;0.10;0.10;;;;;;;;;;5015696;28;20551;-92
2023/12/07 04:21:46;;;;;;;0.10;0.10;;;;;;;;;;5015915;28;20049;-93
2023/12/07 04:24:12;;;;;;;0.10;0.10;;;;;;;;;;5032216;28;20037;-92
2023/12/07 04:26:38;;;;;;;0.10;0.10;;;;;;;;;;5015624;28;20543;-92
2023/12/07 04:29:05;;;;;;;0.10;0.10;;;;;;;;;;5015942;28;20056;-91
2023/12/07 04:31:31;;;;;;;0.20;0.20;;;;;;;;;;5015461;28;20128;-91
2023/12/07 04:33:57;;;;;;;0.10;0.10;;;;;;;;;;5015091;28;20064;-92
2023/12/07 04:36:23;;;;;;;0.10;0.10;;;;;;;;;;5014967;28;20033;-92
2023/12/07 04:38:49;;;;;;;0.10;0.10;;;;;;;;;;5015228;28;20052;-91
2023/12/07 04:41:15;;;;;;;0.10;0.10;;;;;;;;;;5015361;28;20382;-91
2023/12/07 04:43:41;;;;;;;0.10;0.10;;;;;;;;;;5015358;28;20037;-90
2023/12/07 04:46:07;;;;;;;0.20;0.20;;;;;;;;;;5015079;28;20104;-91
2023/12/07 04:48:33;;;;;;;0.10;0.10;;;;;;;;;;5015429;28;20049;-91
2023/12/07 04:50:59;;;;;;;0.20;0.20;;;;;;;;;;5015118;28;20075;-91
2023/12/07 04:53:25;;;;;;;0.10;0.10;;;;;;;;;;5031767;28;20037;-91
2023/12/07 04:55:51;;;;;;;0.20;0.20;;;;;;;;;;5015069;28;20081;-90
2023/12/07 04:58:17;;;;;;;0.10;0.10;;;;;;;;;;5031235;28;20076;-89
2023/12/07 05:00:43;;;;;;;0.20;0.20;;;;;;;;;;5014761;28;20287;-90
2023/12/07 05:03:09;;;;;;;0.10;0.10;;;;;;;;;;5031603;28;20045;-90
2023/12/07 05:05:36;;;;;;;0.10;0.10;;;;;;;;;;5014990;28;20042;-91
2023/12/07 05:08:02;;;;;;;0.10;0.10;;;;;;;;;;5031603;28;20037;-91
2023/12/07 05:10:29;;;;;;;0.10;0.10;;;;;;;;;;5015083;28;20053;-90
2023/12/07 05:12:56;;;;;;;0.10;0.10;;;;;;;;;;5015053;28;20057;-91
2023/12/07 05:15:22;;;;;;;0.10;0.10;;;;;;;;;;5031860;28;20049;-91
2023/12/07 05:17:48;;;;;;;0.10;0.10;;;;;;;;;;5014965;28;20041;-92
2023/12/07 05:20:15;;;;;;;0.10;0.10;;;;;;;;;;5014821;28;20053;-91
2023/12/07 05:22:41;;;;;;;0.20;0.20;;;;;;;;;;5015109;28;20048;-92
2023/12/07 05:25:08;;;;;;;0.10;0.10;;;;;;;;;;5015181;28;20045;-92
2023/12/07 05:27:34;;;;;;;0.10;0.10;;;;;;;;;;5031900;28;20045;-91
2023/12/07 05:30:01;;;;;;;0.10;0.10;;;;;;;;;;5015907;28;20076;-91
2023/12/07 05:32:27;;;;;;;0.10;0.10;;;;;;;;;;5015472;28;20047;-91
2023/12/07 05:34:53;;;;;;;0.10;0.10;;;;;;;;;;5015111;28;20204;-91
2023/12/07 05:37:19;;;;;;;0.10;0.10;;;;;;;;;;5031731;28;20037;-92
2023/12/07 05:39:45;;;;;;;0.10;0.10;;;;;;;;;;5031335;28;20088;-92
2023/12/07 05:42:11;;;;;;;0.10;0.10;;;;;;;;;;5031191;28;20038;-92
2023/12/07 05:44:38;;;;;;;0.10;0.10;;;;;;;;;;5015139;28;20037;-92
2023/12/07 05:47:04;;;;;;;0.10;0.10;;;;;;;;;;5034867;28;20092;-92
2023/12/07 05:49:30;;;;;;;0.10;0.10;;;;;;;;;;5035017;28;20053;-92
2023/12/07 05:51:56;;;;;;;0.10;0.10;;;;;;;;;;5018450;28;20046;-91
2023/12/07 05:54:22;;;;;;;0.10;0.10;;;;;;;;;;5018535;28;20048;-93
2023/12/07 05:56:48;;;;;;;0.20;0.20;;;;;;;;;;5018246;28;20073;-93
2023/12/07 05:59:14;;;;;;;0.10;0.10;;;;;;;;;;5018369;28;20060;-92
2023/12/07 06:01:40;;;;;;;0.10;0.10;;;;;;;;;;5018048;28;20116;-92
2023/12/07 06:04:09;;;;;;;0.10;0.10;;;;;;;;;;5034942;28;20120;-92
2023/12/07 06:06:35;;;;;;;0.10;0.10;;;;;;;;;;5018312;28;20087;-92
2023/12/07 06:09:01;;;;;;;0.10;0.10;;;;;;;;;;5034561;28;20041;-91
2023/12/07 06:11:27;;;;;;;0.10;0.10;;;;;;;;;;5017816;28;20041;-92
2023/12/07 06:13:54;;;;;;;0.20;0.20;;;;;;;;;;5034645;28;20229;-91
2023/12/07 06:16:20;;;;;;;0.10;0.10;;;;;;;;;;5017788;28;20045;-92
2023/12/07 06:18:46;;;;;;;0.10;0.10;;;;;;;;;;5018236;28;20049;-91
2023/12/07 06:21:15;;;;;;;0.10;0.10;;;;;;;;;;5017931;28;20060;-92
2023/12/07 06:23:41;;;;;;;0.10;0.10;;;;;;;;;;5033992;28;20041;-92
2023/12/07 06:26:07;;;;;;;0.10;0.10;;;;;;;;;;5017971;28;20048;-92
2023/12/07 06:28:33;;;;;;;0.10;0.10;;;;;;;;;;5034086;28;20037;-93
2023/12/07 06:31:05;;;;;;;0.10;0.10;;;;;;;;;;5017575;28;20037;-91
2023/12/07 06:33:31;;;;;;;0.10;0.10;;;;;;;;;;5017675;28;20038;-90
2023/12/07 06:35:57;;;;;;;0.10;0.10;;;;;;;;;;5033835;28;20145;-91
2023/12/07 06:38:23;;;;;;;0.10;0.10;;;;;;;;;;5033837;28;20476;-91
2023/12/07 06:40:50;;;;;;;0.10;0.10;;;;;;;;;;5017323;28;20064;-91
2023/12/07 06:43:16;;;;;;;0.10;0.10;;;;;;;;;;5017395;28;20048;-91
2023/12/07 06:45:42;;;;;;;0.10;0.10;;;;;;;;;;5033443;28;20136;-91
2023/12/07 06:48:08;;;;;;;0.10;0.10;;;;;;;;;;5033793;28;20053;-91
2023/12/07 06:50:34;;;;;;;0.10;0.10;;;;;;;;;;5017617;28;20484;-92
2023/12/07 06:53:00;;;;;;;0.10;0.10;;;;;;;;;;5016862;28;20037;-91
2023/12/07 06:55:26;;;;;;;0.10;0.10;;;;;;;;;;5017117;28;20041;-92
2023/12/07 06:57:52;;;;;;;0.63;0.40;;;;;;;;;;5016442;28;20038;-91
2023/12/07 07:00:19;;;;;;;0.10;0.10;;;;;;;;;;5016781;28;20045;-90
2023/12/07 07:02:46;;;;;;;0.10;0.10;;;;;;;;;;5017465;28;20135;-91
2023/12/07 07:05:12;;;;;;;0.10;0.10;;;;;;;;;;5016749;28;20044;-91
2023/12/07 07:07:38;;;;;;;0.10;0.10;;;;;;;;;;5016770;28;20128;-91
2023/12/07 07:10:04;;;;;;;0.10;0.10;;;;;;;;;;5016800;28;20405;-90
2023/12/07 07:12:30;;;;;;;0.10;0.10;;;;;;;;;;5017044;28;20437;-92
2023/12/07 07:14:56;;;;;;;0.10;0.10;;;;;;;;;;5017133;28;20049;-92
2023/12/07 07:17:22;;;;;;;0.10;0.10;;;;;;;;;;5016661;28;20523;-91
2023/12/07 07:19:48;;;;;;;0.10;0.10;;;;;;;;;;5016844;28;20056;-91
2023/12/07 07:22:14;;;;;;;0.10;0.10;;;;;;;;;;5032957;28;20058;-91
2023/12/07 07:24:41;;;;;;;0.10;0.10;;;;;;;;;;5032819;28;20045;-90
2023/12/07 07:27:07;;;;;;;0.10;0.10;;;;;;;;;;5032675;28;20100;-90
2023/12/07 07:29:33;;;;;;;0.10;0.10;;;;;;;;;;5016443;28;20481;-91
2023/12/07 07:31:59;;;;;;;0.22;0.20;;;;;;;;;;5016597;28;20052;-89
2023/12/07 07:34:25;;;;;;;0.10;0.10;;;;;;;;;;5016503;28;20379;-91
2023/12/07 07:36:51;;;;;;;0.10;0.10;;;;;;;;;;5032854;28;20428;-91
2023/12/07 07:39:17;;;;;;;0.10;0.10;;;;;;;;;;5016315;28;20038;-91
2023/12/07 07:41:44;;;;;;;0.10;0.10;;;;;;;;;;5032617;28;20037;-91
2023/12/07 07:44:10;;;;;;;0.10;0.10;;;;;;;;;;5016200;28;20045;-90
2023/12/07 07:46:36;;;;;;;0.10;0.10;;;;;;;;;;5031913;28;20489;-91
2023/12/07 07:49:03;;;;;;;0.20;0.20;;;;;;;;;;5015670;28;20057;-90
2023/12/07 07:51:30;;;;;;;0.10;0.10;;;;;;;;;;5032785;28;20044;-91
2023/12/07 07:53:56;;;;;;;0.10;0.10;;;;;;;;;;5016534;28;20037;-91
2023/12/07 07:56:22;;;;;;;0.40;0.40;;;;;;;;;;5015712;28;20083;-90
2023/12/07 07:58:48;;;;;;;0.10;0.10;;;;;;;;;;5015636;28;20046;-89
2023/12/07 08:01:15;;;;;;;0.10;0.10;;;;;;;;;;5032120;28;20175;-87
2023/12/07 08:03:41;;;;;;;0.10;0.10;;;;;;;;;;5031611;28;20048;-87
2023/12/07 08:06:08;;;;;;;0.40;0.30;;;;;;;;;;5013997;28;20370;-88
2023/12/07 08:08:34;;;;;;;0.10;0.10;;;;;;;;;;5034152;28;20061;-88
2023/12/07 08:11:01;;;;;;;0.10;0.10;;;;;;;;;;5031895;28;20538;-87
2023/12/07 08:13:27;;;;;;;0.10;0.10;;;;;;;;;;5014980;28;20048;-87
2023/12/07 08:15:53;;;;;;;0.10;0.10;;;;;;;;;;5014684;28;20401;-87
2023/12/07 08:18:19;;;;;;;0.10;0.10;;;;;;;;;;5031300;28;20045;-87
2023/12/07 08:20:46;;;;;;;0.10;0.10;;;;;;;;;;4997829;28;20404;-88
2023/12/07 08:23:12;;;;;;;0.20;0.20;;;;;;;;;;4995103;28;20499;-88
2023/12/07 08:25:43;;;;;;;0.40;0.40;;;;;;;;;;4999200;28;20241;-88
2023/12/07 08:28:09;;;;;;;0.10;0.10;;;;;;;;;;5014738;28;20048;-88
2023/12/07 08:30:35;;;;;;;0.10;0.10;;;;;;;;;;5027168;28;20481;-88
2023/12/07 08:33:01;;;;;;;0.10;0.10;;;;;;;;;;5029300;28;20384;-87
2023/12/07 08:35:27;;;;;;;0.10;0.10;;;;;;;;;;5031273;28;20037;-88
2023/12/07 08:37:53;;;;;;;0.10;0.10;;;;;;;;;;5014242;28;20104;-88
2023/12/07 08:40:19;;;;;;;0.38;0.38;;;;;;;;;;5030855;28;20501;-89
2023/12/07 08:42:46;;;;;;;0.10;0.10;;;;;;;;;;5014373;28;20072;-89
2023/12/07 08:45:13;;;;;;;0.10;0.10;;;;;;;;;;5014333;28;20056;-89
2023/12/07 08:47:39;;;;;;;0.10;0.10;;;;;;;;;;5014343;28;20045;-89
2023/12/07 08:50:07;;;;;;;0.10;0.10;;;;;;;;;;5014538;28;20119;-89
2023/12/07 08:52:33;;;;;;;0.10;0.10;;;;;;;;;;5014717;28;20048;-89
2023/12/07 08:55:00;;;;;;;0.10;0.10;;;;;;;;;;5014767;28;20041;-89
2023/12/07 08:57:26;;;;;;;1.50;0.35;;;;;;;;;;5030759;28;20045;-89
2023/12/07 08:59:52;;;;;;;0.10;0.10;;;;;;;;;;5030931;28;20171;-88
2023/12/07 09:02:18;;;;;;;0.10;0.10;;;;;;;;;;5030631;28;20048;-89
2023/12/07 09:04:44;;;;;;;0.10;0.10;;;;;;;;;;5012878;28;20064;-89
2023/12/07 09:07:15;;;;;;;0.10;0.10;;;;;;;;;;5036413;28;20136;-88
2023/12/07 09:09:46;;;;;;;0.10;0.10;;;;;;;;;;5018885;28;20124;-90
2023/12/07 09:12:14;;;;;;;0.10;0.10;;;;;;;;;;5015121;28;20489;-92
2023/12/07 09:14:40;;;;;;;0.10;0.10;;;;;;;;;;5014114;28;20037;-90
2023/12/07 09:17:06;;;;;;;0.70;0.20;;;;;;;;;;5014075;28;20060;-92
2023/12/07 09:19:32;;;;;;;0.10;0.10;;;;;;;;;;5015052;28;20053;-92
2023/12/07 09:21:58;;;;;;;0.10;0.10;;;;;;;;;;5018682;28;20084;-93
2023/12/07 09:24:24;;;;;;;0.10;0.10;;;;;;;;;;5036672;28;20128;-92
2023/12/07 09:26:50;;;;;;;0.30;0.30;;;;;;;;;;5021795;28;20129;-92
2023/12/07 09:29:17;;;;;;;0.90;0.52;;;;;;;;;;5037475;28;20064;-90
2023/12/07 09:31:43;;;;;;;0.30;0.30;;;;;;;;;;5001451;28;20505;-90
2023/12/07 09:34:09;;;;;;;0.10;0.10;;;;;;;;;;5017949;28;20045;-89
2023/12/07 09:36:35;;;;;;;0.15;0.15;;;;;;;;;;5017935;28;20038;-90
2023/12/07 09:39:01;;;;;;;0.10;0.10;;;;;;;;;;5034852;28;20049;-90
2023/12/07 09:41:27;;;;;;;0.10;0.10;;;;;;;;;;5017678;28;20037;-91
2023/12/07 09:43:53;;;;;;;0.40;0.40;;;;;;;;;;5018178;28;20041;-91
2023/12/07 09:46:20;;;;;;;0.10;0.10;;;;;;;;;;5018107;28;20065;-92
2023/12/07 09:48:46;;;;;;;0.10;0.10;;;;;;;;;;5018024;28;20045;-93
2023/12/07 09:51:12;;;;;;;0.10;0.10;;;;;;;;;;5018094;28;20477;-93
2023/12/07 09:53:38;;;;;;;0.10;0.10;;;;;;;;;;5021231;28;20091;-93
2023/12/07 09:56:05;;;;;;;0.20;0.20;;;;;;;;;;5014043;28;20068;-95
2023/12/07 09:58:31;;;;;;;0.20;0.20;;;;;;;;;;5031571;28;20056;-92
2023/12/07 10:01:00;;;;;;;0.10;0.10;;;;;;;;;;5036744;28;20041;-92
2023/12/07 10:03:26;;;;;;;0.38;0.38;;;;;;;;;;5018564;28;20084;-93
2023/12/07 10:05:56;;;;;;;0.20;0.20;;;;;;;;;;5018125;28;20040;-93
2023/12/07 10:08:29;;;;;;;0.10;0.10;;;;;;;;;;5018081;28;20034;-92
2023/12/07 10:11:04;;;;;;;0.10;0.10;;;;;;;;;;5034107;28;20046;-91
2023/12/07 10:13:31;;;;;;;0.20;0.20;;;;;;;;;;5034398;28;20038;-92
2023/12/07 10:16:10;;;;;;;0.10;0.10;;;;;;;;;;5017613;28;20042;-91
2023/12/07 10:18:36;;;;;;;0.10;0.10;;;;;;;;;;5018224;28;20073;-92
2023/12/07 10:21:02;;;;;;;0.15;0.15;;;;;;;;;;5022948;28;20033;-92
2023/12/07 10:23:31;;;;;;;0.10;0.10;;;;;;;;;;5021084;28;20042;-91
2023/12/07 10:25:57;;;;;;;0.10;0.10;;;;;;;;;;5010804;28;20060;-92
2023/12/07 10:28:25;;;;;;;0.10;0.10;;;;;;;;;;5017317;28;20041;-94
2023/12/07 10:30:51;;;;;;;0.10;0.10;;;;;;;;;;5016899;28;20041;-93
2023/12/07 10:33:17;;;;;;;0.15;0.15;;;;;;;;;;5016499;28;20124;-94
2023/12/07 10:35:43;;;;;;;0.65;0.32;;;;;;;;;;5017514;28;20469;-93
2023/12/07 10:38:09;;;;;;;0.20;0.20;;;;;;;;;;5017212;28;20183;-92
2023/12/07 10:40:35;;;;;;;0.10;0.10;;;;;;;;;;5017678;28;20042;-93
2023/12/07 10:43:02;;;;;;;0.15;0.15;;;;;;;;;;5017472;28;20033;-91
2023/12/07 10:45:30;;;;;;;0.10;0.10;;;;;;;;;;5016959;28;20232;-91
2023/12/07 10:48:04;;;;;;;0.98;0.30;;;;;;;;;;5033619;28;20060;-90
2023/12/07 10:50:31;;;;;;;0.10;0.10;;;;;;;;;;5032860;28;20156;-91
2023/12/07 10:52:58;;;;;;;0.30;0.30;;;;;;;;;;5016869;28;20047;-91
2023/12/07 10:55:30;;;;;;;0.10;0.10;;;;;;;;;;5016437;28;20497;-91
2023/12/07 10:57:56;;;;;;;0.30;0.30;;;;;;;;;;5016916;28;20465;-92
2023/12/07 11:00:28;;;;;;;0.30;0.30;;;;;;;;;;5017170;28;20037;-92
2023/12/07 11:03:16;;;;;;;0.10;0.10;;;;;;;;;;5023617;28;20038;-93
2023/12/07 11:05:41;;;;;;;0.47;0.20;;;;;;;;;;5019319;28;20101;-90
2023/12/07 11:08:07;;;;;;;0.10;0.10;;;;;;;;;;5033320;28;20064;-90
2023/12/07 11:10:53;;;;;;;0.20;0.20;;;;;;;;;;5018399;28;20041;-90
2023/12/07 11:13:19;;;;;;;0.10;0.10;;;;;;;;;;5016919;28;20049;-91
2023/12/07 11:15:45;;;;;;;0.25;0.25;;;;;;;;;;5032906;28;20049;-90
2023/12/07 11:18:13;;;;;;;0.17;0.17;;;;;;;;;;5016538;28;20477;-91
2023/12/07 11:20:44;;;;;;;0.10;0.10;;;;;;;;;;5022228;28;20044;-90
2023/12/07 11:23:10;;;;;;;0.20;0.20;;;;;;;;;;5016683;28;20037;-92
2023/12/07 11:25:41;;;;;;;0.20;0.20;;;;;;;;;;5016614;28;20131;-92
2023/12/07 11:28:07;;;;;;;0.30;0.30;;;;;;;;;;5016609;28;20081;-91
2023/12/07 11:30:34;;;;;;;0.13;0.13;;;;;;;;;;5016241;28;20519;-91
2023/12/07 11:33:00;;;;;;;0.10;0.10;;;;;;;;;;5016042;28;20069;-91
2023/12/07 11:35:26;;;;;;;0.17;0.15;;;;;;;;;;5015963;28;20060;-90
2023/12/07 11:38:06;;;;;;;0.10;0.10;;;;;;;;;;5016093;28;20045;-90
2023/12/07 11:40:33;;;;;;;0.35;0.35;;;;;;;;;;5032092;28;20128;-91
2023/12/07 11:43:05;;;;;;;0.10;0.10;;;;;;;;;;5032112;28;20041;-93
2023/12/07 11:45:38;;;;;;;0.10;0.10;;;;;;;;;;5016480;28;20057;-91
2023/12/07 11:48:08;;;;;;;0.10;0.10;;;;;;;;;;5015897;28;20497;-91
2023/12/07 11:50:34;;;;;;;0.10;0.10;;;;;;;;;;5016129;28;20053;-91
2023/12/07 11:53:00;;;;;;;0.35;0.35;;;;;;;;;;5032048;28;20048;-91
2023/12/07 11:55:26;;;;;;;0.10;0.10;;;;;;;;;;5015778;28;20038;-92
2023/12/07 11:57:52;;;;;;;0.10;0.10;;;;;;;;;;5032457;28;20041;-92
2023/12/07 12:00:18;;;;;;;0.20;0.20;;;;;;;;;;5015813;28;20065;-92
2023/12/07 12:02:48;;;;;;;0.20;0.20;;;;;;;;;;5044439;28;20062;-92
2023/12/07 12:05:14;;;;;;;0.10;0.10;;;;;;;;;;5035748;28;20037;-92
2023/12/07 12:07:40;;;;;;;0.10;0.10;;;;;;;;;;5021825;28;20042;-91
2023/12/07 12:10:06;;;;;;;0.20;0.20;;;;;;;;;;5016206;28;20045;-92
2023/12/07 12:12:35;;;;;;;0.25;0.20;;;;;;;;;;5016564;28;20049;-93
2023/12/07 12:15:01;;;;;;;0.17;0.17;;;;;;;;;;5015755;28;20080;-93
2023/12/07 12:17:28;;;;;;;0.10;0.10;;;;;;;;;;5015274;28;20079;-92
2023/12/07 12:19:54;;;;;;;0.10;0.10;;;;;;;;;;5031729;28;20037;-93
2023/12/07 12:22:20;;;;;;;0.20;0.20;;;;;;;;;;5037523;28;20072;-93
2023/12/07 12:24:46;;;;;;;0.20;0.20;;;;;;;;;;5018863;28;20143;-92
2023/12/07 12:27:13;;;;;;;0.10;0.10;;;;;;;;;;5010038;28;20099;-92
2023/12/07 12:29:41;;;;;;;0.20;0.20;;;;;;;;;;5015619;28;20052;-90
2023/12/07 12:32:09;;;;;;;0.10;0.10;;;;;;;;;;5018714;28;20082;-92
2023/12/07 12:34:36;;;;;;;0.50;0.50;;;;;;;;;;5015390;28;20053;-90
2023/12/07 12:37:05;;;;;;;0.15;0.15;;;;;;;;;;5019232;28;20436;-92
2023/12/07 12:39:31;;;;;;;0.10;0.10;;;;;;;;;;5015669;28;20044;-93
2023/12/07 12:41:59;;;;;;;0.30;0.30;;;;;;;;;;5015284;28;20041;-92
2023/12/07 12:44:25;;;;;;;0.40;0.40;;;;;;;;;;5015882;28;20040;-92
2023/12/07 12:46:51;;;;;;;0.20;0.20;;;;;;;;;;5015011;28;20516;-92
2023/12/07 12:49:17;;;;;;;0.10;0.10;;;;;;;;;;5015021;28;20095;-92
2023/12/07 12:51:45;;;;;;;0.55;0.25;;;;;;;;;;5015384;28;20041;-92
2023/12/07 12:54:11;;;;;;;0.13;0.13;;;;;;;;;;5031021;28;20543;-92
2023/12/07 12:56:37;;;;;;;4.28;1.05;;;;;;;;;;5031691;28;20041;-92
2023/12/07 12:59:03;;;;;;;0.10;0.10;;;;;;;;;;5031607;28;20037;-92
2023/12/07 13:01:29;;;;;;;0.32;0.32;;;;;;;;;;5014998;28;20045;-94
2023/12/07 13:03:56;;;;;;;0.17;0.17;;;;;;;;;;5014609;28;20077;-94
2023/12/07 13:06:22;;;;;;;0.45;0.25;;;;;;;;;;5014115;28;20038;-94
2023/12/07 13:08:49;;;;;;;0.75;0.75;;;;;;;;;;5005199;28;20048;-94
2023/12/07 13:11:18;;;;;;;0.10;0.10;;;;;;;;;;5014982;28;20037;-94
2023/12/07 13:13:45;;;;;;;1.38;0.40;;;;;;;;;;4999416;28;20037;-93
2023/12/07 13:16:14;;;;;;;0.52;0.50;;;;;;;;;;5014430;28;20120;-93
2023/12/07 13:18:40;;;;;;;0.20;0.20;;;;;;;;;;5015587;28;20603;-92
2023/12/07 13:21:07;;;;;;;0.20;0.20;;;;;;;;;;5015396;28;20047;-95
2023/12/07 13:23:33;;;;;;;0.10;0.10;;;;;;;;;;5014522;28;20057;-94
2023/12/07 13:25:59;;;;;;;0.10;0.10;;;;;;;;;;5015285;28;20071;-92
2023/12/07 13:28:25;;;;;;;0.40;0.40;;;;;;;;;;5014706;28;20045;-93
2023/12/07 13:30:51;;;;;;;0.30;0.30;;;;;;;;;;5014442;28;20496;-94
2023/12/07 13:33:17;;;;;;;0.35;0.35;;;;;;;;;;5014526;28;20437;-91
2023/12/07 13:35:43;;;;;;;0.10;0.10;;;;;;;;;;5031208;28;20481;-92
2023/12/07 13:38:09;;;;;;;0.10;0.10;;;;;;;;;;5014590;28;20049;-93
2023/12/07 13:40:37;;;;;;;0.20;0.20;;;;;;;;;;5014320;28;20077;-93
2023/12/07 13:43:03;;;;;;;0.10;0.10;;;;;;;;;;5014791;28;20042;-93
2023/12/07 13:45:29;;;;;;;0.15;0.15;;;;;;;;;;5014968;28;20057;-94
2023/12/07 13:47:56;;;;;;;0.10;0.10;;;;;;;;;;5014638;28;20045;-93
2023/12/07 13:50:22;;;;;;;0.35;0.35;;;;;;;;;;5031134;28;20151;-92
2023/12/07 13:52:48;;;;;;;0.17;0.17;;;;;;;;;;5014506;28;20037;-91
2023/12/07 13:55:14;;;;;;;0.20;0.20;;;;;;;;;;5031274;28;20049;-92
2023/12/07 13:57:40;;;;;;;0.13;0.13;;;;;;;;;;5014652;28;20038;-92
2023/12/07 14:00:12;;;;;;;0.10;0.10;;;;;;;;;;5014299;28;20092;-90
2023/12/07 14:02:39;;;;;;;0.13;0.13;;;;;;;;;;5015576;28;20041;-91
2023/12/07 14:05:08;;;;;;;0.95;0.95;;;;;;;;;;5030653;28;20042;-95
2023/12/07 14:07:43;;;;;;;0.13;0.13;;;;;;;;;;5027506;28;20132;-95
2023/12/07 14:10:09;;;;;;;0.65;0.65;;;;;;;;;;5030179;23;20057;-92
2023/12/07 14:12:35;;;;;;;0.10;0.10;;;;;;;;;;5017545;28;20052;-94
2023/12/07 14:15:01;;;;;;;0.10;0.10;;;;;;;;;;5018077;28;20500;-93
2023/12/07 14:17:31;;;;;;;0.10;0.10;;;;;;;;;;5018414;28;20504;-92
2023/12/07 14:19:57;;;;;;;0.25;0.20;;;;;;;;;;5018058;28;20518;-92
2023/12/07 14:22:23;;;;;;;0.20;0.20;;;;;;;;;;5018788;28;20037;-92
2023/12/07 14:24:50;;;;;;;0.13;0.13;;;;;;;;;;5020638;28;20507;-90
2023/12/07 14:27:16;;;;;;;0.30;0.30;;;;;;;;;;5031033;28;20049;-90
2023/12/07 14:29:42;;;;;;;1.50;1.48;;;;;;;;;;5029275;28;20094;-92
2023/12/07 14:32:09;;;;;;;0.10;0.10;;;;;;;;;;5017768;28;20048;-90
2023/12/07 14:34:35;;;;;;;0.10;0.10;;;;;;;;;;5017358;28;20048;-91
2023/12/07 14:37:02;;;;;;;0.10;0.10;;;;;;;;;;5017173;28;20088;-91
2023/12/07 14:39:28;;;;;;;0.10;0.10;;;;;;;;;;5017404;28;20045;-92